sensor_id;sensor_type;location;lat;lon;timestamp;P1;P2;P0
69224;PMS1003;56333;51.306;17.056;2023-04-03T00:00:39;9.10;2.90;
69224;PMS1003;56333;51.306;17.056;2023-04-03T00:02:08;8.00;3.00;
69224;PMS1003;56333;51.306;17.056;2023-04-03T00:03:37;7.90;2.90;
69224;PMS1003;56333;51.306;17.056;2023-04-03T00:05:08;8.00;3.40;
69224;PMS1003;56333;51.306;17.056;2023-04-03T00:06:36;8.30;3.20;
69224;PMS1003;56333;51.306;17.056;2023-04-03T00:08:05;8.00;3.00;
69224;PMS1003;56333;51.306;17.056;2023-04-03T00:09:35;8.10;3.10;
69224;PMS1003;56333;51.306;17.056;2023-04-03T00:11:04;6.90;2.70;
69224;PMS1003;56333;51.306;17.056;2023-04-03T00:12:34;6.60;2.70;
69224;PMS1003;56333;51.306;17.056;2023-04-03T00:14:02;7.90;2.60;
69224;PMS1003;56333;51.306;17.056;2023-04-03T00:15:31;9.10;3.20;
69224;PMS1003;56333;51.306;17.056;2023-04-03T00:17:01;7.00;2.90;
69224;PMS1003;56333;51.306;17.056;2023-04-03T00:18:29;8.50;3.20;
69224;PMS1003;56333;51.306;17.056;2023-04-03T00:19:58;6.50;2.40;
69224;PMS1003;56333;51.306;17.056;2023-04-03T00:21:30;9.50;2.80;
69224;PMS1003;56333;51.306;17.056;2023-04-03T00:22:59;7.40;2.80;
69224;PMS1003;56333;51.306;17.056;2023-04-03T00:24:29;8.50;3.10;
69224;PMS1003;56333;51.306;17.056;2023-04-03T00:25:58;7.80;2.90;
69224;PMS1003;56333;51.306;17.056;2023-04-03T00:27:26;8.70;3.40;
69224;PMS1003;56333;51.306;17.056;2023-04-03T00:28:55;9.40;4.50;
69224;PMS1003;56333;51.306;17.056;2023-04-03T00:30:24;5.90;2.70;
69224;PMS1003;56333;51.306;17.056;2023-04-03T00:31:53;11.10;4.20;
69224;PMS1003;56333;51.306;17.056;2023-04-03T00:33:21;7.90;3.30;
69224;PMS1003;56333;51.306;17.056;2023-04-03T00:34:49;6.60;2.90;
69224;PMS1003;56333;51.306;17.056;2023-04-03T00:36:19;8.50;2.90;
69224;PMS1003;56333;51.306;17.056;2023-04-03T00:37:48;6.00;2.50;
69224;PMS1003;56333;51.306;17.056;2023-04-03T00:40:49;6.70;2.50;
69224;PMS1003;56333;51.306;17.056;2023-04-03T00:42:18;9.50;3.10;
69224;PMS1003;56333;51.306;17.056;2023-04-03T00:43:47;8.10;2.60;
69224;PMS1003;56333;51.306;17.056;2023-04-03T00:45:36;6.50;2.50;
69224;PMS1003;56333;51.306;17.056;2023-04-03T00:47:08;6.40;2.60;
69224;PMS1003;56333;51.306;17.056;2023-04-03T00:48:41;7.70;2.80;
69224;PMS1003;56333;51.306;17.056;2023-04-03T00:50:11;7.90;2.90;
69224;PMS1003;56333;51.306;17.056;2023-04-03T00:51:40;8.80;2.90;
69224;PMS1003;56333;51.306;17.056;2023-04-03T00:53:13;9.90;2.80;
69224;PMS1003;56333;51.306;17.056;2023-04-03T00:54:44;7.60;2.70;
69224;PMS1003;56333;51.306;17.056;2023-04-03T00:56:18;7.70;3.30;
69224;PMS1003;56333;51.306;17.056;2023-04-03T00:57:49;8.40;2.60;
69224;PMS1003;56333;51.306;17.056;2023-04-03T00:59:21;7.80;2.60;
69224;PMS1003;56333;51.306;17.056;2023-04-03T01:00:55;8.50;4.30;
69224;PMS1003;56333;51.306;17.056;2023-04-03T01:02:26;9.60;2.80;
69224;PMS1003;56333;51.306;17.056;2023-04-03T01:03:55;8.40;3.30;
69224;PMS1003;56333;51.306;17.056;2023-04-03T01:05:25;7.90;3.50;
69224;PMS1003;56333;51.306;17.056;2023-04-03T01:06:55;9.00;3.20;
69224;PMS1003;56333;51.306;17.056;2023-04-03T01:09:57;7.40;2.70;
69224;PMS1003;56333;51.306;17.056;2023-04-03T01:11:28;7.70;3.00;
69224;PMS1003;56333;51.306;17.056;2023-04-03T01:12:57;8.20;2.90;
69224;PMS1003;56333;51.306;17.056;2023-04-03T01:14:28;7.60;3.20;
69224;PMS1003;56333;51.306;17.056;2023-04-03T01:15:56;8.80;2.80;
69224;PMS1003;56333;51.306;17.056;2023-04-03T01:17:33;6.60;2.40;
69224;PMS1003;56333;51.306;17.056;2023-04-03T01:19:04;8.70;2.90;
69224;PMS1003;56333;51.306;17.056;2023-04-03T01:21:13;7.50;2.50;
69224;PMS1003;56333;51.306;17.056;2023-04-03T01:23:20;6.20;2.40;
69224;PMS1003;56333;51.306;17.056;2023-04-03T01:24:53;7.50;2.70;
69224;PMS1003;56333;51.306;17.056;2023-04-03T01:26:21;7.40;2.80;
69224;PMS1003;56333;51.306;17.056;2023-04-03T01:27:51;7.00;3.10;
69224;PMS1003;56333;51.306;17.056;2023-04-03T01:29:20;9.00;3.00;
69224;PMS1003;56333;51.306;17.056;2023-04-03T01:30:56;8.20;2.90;
69224;PMS1003;56333;51.306;17.056;2023-04-03T01:32:30;7.70;3.20;
69224;PMS1003;56333;51.306;17.056;2023-04-03T01:33:59;8.40;3.70;
69224;PMS1003;56333;51.306;17.056;2023-04-03T01:35:28;10.60;3.10;
69224;PMS1003;56333;51.306;17.056;2023-04-03T01:36:57;9.20;2.80;
69224;PMS1003;56333;51.306;17.056;2023-04-03T01:38:27;7.10;2.70;
69224;PMS1003;56333;51.306;17.056;2023-04-03T01:39:56;8.70;2.80;
69224;PMS1003;56333;51.306;17.056;2023-04-03T01:41:25;7.20;2.30;
69224;PMS1003;56333;51.306;17.056;2023-04-03T01:42:57;7.40;2.60;
69224;PMS1003;56333;51.306;17.056;2023-04-03T01:44:26;6.90;2.50;
69224;PMS1003;56333;51.306;17.056;2023-04-03T01:45:55;7.90;3.00;
69224;PMS1003;56333;51.306;17.056;2023-04-03T01:47:24;8.70;2.90;
69224;PMS1003;56333;51.306;17.056;2023-04-03T01:48:53;7.50;2.70;
69224;PMS1003;56333;51.306;17.056;2023-04-03T01:50:21;7.90;2.90;
69224;PMS1003;56333;51.306;17.056;2023-04-03T01:51:50;8.60;3.90;
69224;PMS1003;56333;51.306;17.056;2023-04-03T01:53:19;8.00;3.10;
69224;PMS1003;56333;51.306;17.056;2023-04-03T01:54:48;7.50;4.00;
69224;PMS1003;56333;51.306;17.056;2023-04-03T01:56:17;9.80;3.20;
69224;PMS1003;56333;51.306;17.056;2023-04-03T01:57:46;8.10;3.00;
69224;PMS1003;56333;51.306;17.056;2023-04-03T01:59:15;7.00;3.00;
69224;PMS1003;56333;51.306;17.056;2023-04-03T02:00:44;7.80;2.80;
69224;PMS1003;56333;51.306;17.056;2023-04-03T02:02:14;7.10;3.20;
69224;PMS1003;56333;51.306;17.056;2023-04-03T02:03:43;8.70;3.30;
69224;PMS1003;56333;51.306;17.056;2023-04-03T02:05:12;7.70;2.80;
69224;PMS1003;56333;51.306;17.056;2023-04-03T02:06:40;7.90;2.90;
69224;PMS1003;56333;51.306;17.056;2023-04-03T02:08:09;9.30;3.20;
69224;PMS1003;56333;51.306;17.056;2023-04-03T02:09:38;7.40;3.00;
69224;PMS1003;56333;51.306;17.056;2023-04-03T02:11:08;8.30;3.10;
69224;PMS1003;56333;51.306;17.056;2023-04-03T02:12:37;10.60;3.20;
69224;PMS1003;56333;51.306;17.056;2023-04-03T02:14:06;9.00;2.90;
69224;PMS1003;56333;51.306;17.056;2023-04-03T02:15:37;7.40;3.10;
69224;PMS1003;56333;51.306;17.056;2023-04-03T02:17:06;7.30;2.70;
69224;PMS1003;56333;51.306;17.056;2023-04-03T02:18:35;9.20;3.00;
69224;PMS1003;56333;51.306;17.056;2023-04-03T02:20:07;6.60;2.40;
69224;PMS1003;56333;51.306;17.056;2023-04-03T02:21:36;7.40;2.80;
69224;PMS1003;56333;51.306;17.056;2023-04-03T02:23:06;10.40;3.00;
69224;PMS1003;56333;51.306;17.056;2023-04-03T02:24:34;8.00;3.30;
69224;PMS1003;56333;51.306;17.056;2023-04-03T02:26:10;9.10;3.20;
69224;PMS1003;56333;51.306;17.056;2023-04-03T02:27:40;9.00;3.90;
69224;PMS1003;56333;51.306;17.056;2023-04-03T02:29:08;9.00;3.60;
69224;PMS1003;56333;51.306;17.056;2023-04-03T02:30:37;6.60;2.80;
69224;PMS1003;56333;51.306;17.056;2023-04-03T02:32:06;7.90;3.40;
69224;PMS1003;56333;51.306;17.056;2023-04-03T02:33:36;9.40;3.00;
69224;PMS1003;56333;51.306;17.056;2023-04-03T02:35:08;9.90;3.00;
69224;PMS1003;56333;51.306;17.056;2023-04-03T02:38:07;6.40;2.90;
69224;PMS1003;56333;51.306;17.056;2023-04-03T02:39:37;8.40;2.80;
69224;PMS1003;56333;51.306;17.056;2023-04-03T02:41:08;10.40;4.80;
69224;PMS1003;56333;51.306;17.056;2023-04-03T02:42:37;6.50;3.00;
69224;PMS1003;56333;51.306;17.056;2023-04-03T02:44:09;9.10;2.90;
69224;PMS1003;56333;51.306;17.056;2023-04-03T02:45:38;8.00;3.30;
69224;PMS1003;56333;51.306;17.056;2023-04-03T02:47:06;9.00;3.00;
69224;PMS1003;56333;51.306;17.056;2023-04-03T02:48:35;9.90;4.10;
69224;PMS1003;56333;51.306;17.056;2023-04-03T02:50:06;7.70;3.10;
69224;PMS1003;56333;51.306;17.056;2023-04-03T02:51:35;9.50;4.50;
69224;PMS1003;56333;51.306;17.056;2023-04-03T02:53:04;8.10;4.30;
69224;PMS1003;56333;51.306;17.056;2023-04-03T02:54:33;9.00;2.80;
69224;PMS1003;56333;51.306;17.056;2023-04-03T02:56:04;10.50;3.10;
69224;PMS1003;56333;51.306;17.056;2023-04-03T02:57:33;8.70;3.30;
69224;PMS1003;56333;51.306;17.056;2023-04-03T02:59:02;9.50;3.40;
69224;PMS1003;56333;51.306;17.056;2023-04-03T03:00:31;10.90;3.30;
69224;PMS1003;56333;51.306;17.056;2023-04-03T03:02:00;7.20;2.90;
69224;PMS1003;56333;51.306;17.056;2023-04-03T03:03:28;8.70;2.80;
69224;PMS1003;56333;51.306;17.056;2023-04-03T03:04:57;7.90;3.00;
69224;PMS1003;56333;51.306;17.056;2023-04-03T03:06:26;6.70;2.80;
69224;PMS1003;56333;51.306;17.056;2023-04-03T03:07:55;8.30;2.90;
69224;PMS1003;56333;51.306;17.056;2023-04-03T03:09:25;8.00;3.30;
69224;PMS1003;56333;51.306;17.056;2023-04-03T03:10:55;7.10;2.80;
69224;PMS1003;56333;51.306;17.056;2023-04-03T03:12:24;8.70;2.70;
69224;PMS1003;56333;51.306;17.056;2023-04-03T03:13:59;8.60;2.80;
69224;PMS1003;56333;51.306;17.056;2023-04-03T03:15:28;7.90;3.10;
69224;PMS1003;56333;51.306;17.056;2023-04-03T03:16:57;8.80;2.80;
69224;PMS1003;56333;51.306;17.056;2023-04-03T03:18:26;7.60;2.90;
69224;PMS1003;56333;51.306;17.056;2023-04-03T03:19:54;7.20;2.70;
69224;PMS1003;56333;51.306;17.056;2023-04-03T03:21:23;8.80;2.90;
69224;PMS1003;56333;51.306;17.056;2023-04-03T03:22:52;9.10;3.10;
69224;PMS1003;56333;51.306;17.056;2023-04-03T03:24:22;8.90;2.90;
69224;PMS1003;56333;51.306;17.056;2023-04-03T03:25:56;8.90;3.00;
69224;PMS1003;56333;51.306;17.056;2023-04-03T03:27:25;8.20;2.70;
69224;PMS1003;56333;51.306;17.056;2023-04-03T03:28:54;9.40;3.00;
69224;PMS1003;56333;51.306;17.056;2023-04-03T03:30:23;9.80;3.10;
69224;PMS1003;56333;51.306;17.056;2023-04-03T03:31:53;14.20;2.90;
69224;PMS1003;56333;51.306;17.056;2023-04-03T03:33:21;9.30;2.80;
69224;PMS1003;56333;51.306;17.056;2023-04-03T03:34:51;7.90;2.80;
69224;PMS1003;56333;51.306;17.056;2023-04-03T03:36:20;8.50;2.70;
69224;PMS1003;56333;51.306;17.056;2023-04-03T03:37:48;7.60;2.90;
69224;PMS1003;56333;51.306;17.056;2023-04-03T03:39:17;6.10;2.70;
69224;PMS1003;56333;51.306;17.056;2023-04-03T03:40:48;7.80;2.80;
69224;PMS1003;56333;51.306;17.056;2023-04-03T03:42:18;8.40;2.90;
69224;PMS1003;56333;51.306;17.056;2023-04-03T03:43:48;8.20;3.00;
69224;PMS1003;56333;51.306;17.056;2023-04-03T03:45:18;7.20;3.30;
69224;PMS1003;56333;51.306;17.056;2023-04-03T03:46:46;9.80;3.50;
69224;PMS1003;56333;51.306;17.056;2023-04-03T03:48:15;7.40;3.50;
69224;PMS1003;56333;51.306;17.056;2023-04-03T03:49:44;8.90;3.80;
69224;PMS1003;56333;51.306;17.056;2023-04-03T03:51:14;7.90;3.10;
69224;PMS1003;56333;51.306;17.056;2023-04-03T03:52:43;8.30;2.80;
69224;PMS1003;56333;51.306;17.056;2023-04-03T03:54:12;7.90;3.20;
69224;PMS1003;56333;51.306;17.056;2023-04-03T03:55:41;8.20;2.90;
69224;PMS1003;56333;51.306;17.056;2023-04-03T03:57:11;6.10;2.30;
69224;PMS1003;56333;51.306;17.056;2023-04-03T03:58:40;6.50;2.80;
69224;PMS1003;56333;51.306;17.056;2023-04-03T04:00:11;7.90;2.90;
69224;PMS1003;56333;51.306;17.056;2023-04-03T04:01:43;8.30;2.80;
69224;PMS1003;56333;51.306;17.056;2023-04-03T04:03:12;8.80;3.00;
69224;PMS1003;56333;51.306;17.056;2023-04-03T04:04:41;9.00;2.80;
69224;PMS1003;56333;51.306;17.056;2023-04-03T04:06:12;6.70;2.80;
69224;PMS1003;56333;51.306;17.056;2023-04-03T04:07:41;8.40;3.40;
69224;PMS1003;56333;51.306;17.056;2023-04-03T04:09:11;7.60;3.00;
69224;PMS1003;56333;51.306;17.056;2023-04-03T04:10:40;7.90;3.50;
69224;PMS1003;56333;51.306;17.056;2023-04-03T04:12:09;8.50;3.00;
69224;PMS1003;56333;51.306;17.056;2023-04-03T04:13:38;7.90;2.60;
69224;PMS1003;56333;51.306;17.056;2023-04-03T04:15:10;6.80;2.70;
69224;PMS1003;56333;51.306;17.056;2023-04-03T04:16:39;7.20;3.10;
69224;PMS1003;56333;51.306;17.056;2023-04-03T04:18:12;9.40;3.00;
69224;PMS1003;56333;51.306;17.056;2023-04-03T04:19:42;8.90;3.50;
69224;PMS1003;56333;51.306;17.056;2023-04-03T04:21:12;8.70;3.70;
69224;PMS1003;56333;51.306;17.056;2023-04-03T04:22:42;10.70;3.70;
69224;PMS1003;56333;51.306;17.056;2023-04-03T04:24:11;10.30;4.10;
69224;PMS1003;56333;51.306;17.056;2023-04-03T04:25:40;7.40;3.50;
69224;PMS1003;56333;51.306;17.056;2023-04-03T04:27:10;10.80;3.20;
69224;PMS1003;56333;51.306;17.056;2023-04-03T04:28:39;8.10;3.20;
69224;PMS1003;56333;51.306;17.056;2023-04-03T04:30:13;7.20;3.20;
69224;PMS1003;56333;51.306;17.056;2023-04-03T04:31:42;8.60;2.90;
69224;PMS1003;56333;51.306;17.056;2023-04-03T04:33:12;9.60;3.00;
69224;PMS1003;56333;51.306;17.056;2023-04-03T04:34:41;8.30;3.10;
69224;PMS1003;56333;51.306;17.056;2023-04-03T04:36:10;8.20;3.00;
69224;PMS1003;56333;51.306;17.056;2023-04-03T04:39:10;7.90;3.30;
69224;PMS1003;56333;51.306;17.056;2023-04-03T04:40:40;7.90;3.40;
69224;PMS1003;56333;51.306;17.056;2023-04-03T04:42:10;8.40;3.10;
69224;PMS1003;56333;51.306;17.056;2023-04-03T04:43:39;9.20;2.80;
69224;PMS1003;56333;51.306;17.056;2023-04-03T04:45:10;8.60;3.30;
69224;PMS1003;56333;51.306;17.056;2023-04-03T04:46:40;8.10;2.70;
69224;PMS1003;56333;51.306;17.056;2023-04-03T04:48:09;11.60;4.30;
69224;PMS1003;56333;51.306;17.056;2023-04-03T04:49:38;11.50;3.50;
69224;PMS1003;56333;51.306;17.056;2023-04-03T04:51:07;9.20;3.20;
69224;PMS1003;56333;51.306;17.056;2023-04-03T04:52:36;8.10;2.90;
69224;PMS1003;56333;51.306;17.056;2023-04-03T04:54:06;9.10;3.10;
69224;PMS1003;56333;51.306;17.056;2023-04-03T04:55:35;8.30;3.30;
69224;PMS1003;56333;51.306;17.056;2023-04-03T04:57:05;7.50;3.20;
69224;PMS1003;56333;51.306;17.056;2023-04-03T04:58:33;11.90;3.30;
69224;PMS1003;56333;51.306;17.056;2023-04-03T05:00:03;6.70;2.80;
69224;PMS1003;56333;51.306;17.056;2023-04-03T05:01:33;7.40;2.80;
69224;PMS1003;56333;51.306;17.056;2023-04-03T05:03:07;8.40;2.80;
69224;PMS1003;56333;51.306;17.056;2023-04-03T05:04:36;7.90;3.20;
69224;PMS1003;56333;51.306;17.056;2023-04-03T05:06:08;9.00;2.90;
69224;PMS1003;56333;51.306;17.056;2023-04-03T05:07:37;8.80;3.10;
69224;PMS1003;56333;51.306;17.056;2023-04-03T05:09:07;8.70;3.10;
69224;PMS1003;56333;51.306;17.056;2023-04-03T05:10:37;8.30;3.20;
69224;PMS1003;56333;51.306;17.056;2023-04-03T05:12:08;6.40;2.70;
69224;PMS1003;56333;51.306;17.056;2023-04-03T05:13:42;8.30;3.40;
69224;PMS1003;56333;51.306;17.056;2023-04-03T05:15:12;7.40;2.80;
69224;PMS1003;56333;51.306;17.056;2023-04-03T05:16:41;10.50;3.90;
69224;PMS1003;56333;51.306;17.056;2023-04-03T05:18:11;8.30;3.40;
69224;PMS1003;56333;51.306;17.056;2023-04-03T05:19:40;10.20;3.70;
69224;PMS1003;56333;51.306;17.056;2023-04-03T05:21:09;8.50;3.40;
69224;PMS1003;56333;51.306;17.056;2023-04-03T05:22:38;7.50;3.00;
69224;PMS1003;56333;51.306;17.056;2023-04-03T05:24:08;9.00;3.50;
69224;PMS1003;56333;51.306;17.056;2023-04-03T05:25:39;8.20;2.90;
69224;PMS1003;56333;51.306;17.056;2023-04-03T05:27:10;7.90;2.70;
69224;PMS1003;56333;51.306;17.056;2023-04-03T05:28:41;7.40;2.90;
69224;PMS1003;56333;51.306;17.056;2023-04-03T05:30:14;9.90;3.40;
69224;PMS1003;56333;51.306;17.056;2023-04-03T05:31:43;6.90;2.90;
69224;PMS1003;56333;51.306;17.056;2023-04-03T05:33:12;8.50;3.00;
69224;PMS1003;56333;51.306;17.056;2023-04-03T05:34:47;7.90;2.90;
69224;PMS1003;56333;51.306;17.056;2023-04-03T05:36:19;9.30;3.50;
69224;PMS1003;56333;51.306;17.056;2023-04-03T05:37:50;11.00;3.30;
69224;PMS1003;56333;51.306;17.056;2023-04-03T05:39:19;6.80;3.40;
69224;PMS1003;56333;51.306;17.056;2023-04-03T05:40:49;6.50;2.90;
69224;PMS1003;56333;51.306;17.056;2023-04-03T05:42:18;8.10;2.90;
69224;PMS1003;56333;51.306;17.056;2023-04-03T05:43:47;7.50;3.00;
69224;PMS1003;56333;51.306;17.056;2023-04-03T05:45:16;9.80;2.80;
69224;PMS1003;56333;51.306;17.056;2023-04-03T05:46:44;7.30;3.00;
69224;PMS1003;56333;51.306;17.056;2023-04-03T05:48:13;9.40;3.00;
69224;PMS1003;56333;51.306;17.056;2023-04-03T05:49:42;9.80;2.80;
69224;PMS1003;56333;51.306;17.056;2023-04-03T05:51:15;8.00;2.70;
69224;PMS1003;56333;51.306;17.056;2023-04-03T05:52:48;9.60;3.10;
69224;PMS1003;56333;51.306;17.056;2023-04-03T05:54:21;6.10;2.80;
69224;PMS1003;56333;51.306;17.056;2023-04-03T05:55:56;8.20;2.70;
69224;PMS1003;56333;51.306;17.056;2023-04-03T05:57:25;8.20;2.70;
69224;PMS1003;56333;51.306;17.056;2023-04-03T05:58:54;8.10;2.90;
69224;PMS1003;56333;51.306;17.056;2023-04-03T06:00:24;7.90;2.90;
69224;PMS1003;56333;51.306;17.056;2023-04-03T06:01:57;7.00;2.60;
69224;PMS1003;56333;51.306;17.056;2023-04-03T06:03:26;8.10;3.10;
69224;PMS1003;56333;51.306;17.056;2023-04-03T06:04:56;8.40;3.30;
69224;PMS1003;56333;51.306;17.056;2023-04-03T06:06:25;7.40;3.00;
69224;PMS1003;56333;51.306;17.056;2023-04-03T06:07:55;8.00;3.00;
69224;PMS1003;56333;51.306;17.056;2023-04-03T06:09:27;9.30;3.60;
69224;PMS1003;56333;51.306;17.056;2023-04-03T06:10:57;8.90;3.70;
69224;PMS1003;56333;51.306;17.056;2023-04-03T06:12:27;9.90;4.30;
69224;PMS1003;56333;51.306;17.056;2023-04-03T06:13:56;9.50;3.40;
69224;PMS1003;56333;51.306;17.056;2023-04-03T06:15:26;11.70;3.50;
69224;PMS1003;56333;51.306;17.056;2023-04-03T06:16:55;11.00;3.60;
69224;PMS1003;56333;51.306;17.056;2023-04-03T06:18:25;8.50;2.80;
69224;PMS1003;56333;51.306;17.056;2023-04-03T06:19:55;8.60;3.20;
69224;PMS1003;56333;51.306;17.056;2023-04-03T06:21:24;9.60;3.30;
69224;PMS1003;56333;51.306;17.056;2023-04-03T06:22:53;8.50;3.50;
69224;PMS1003;56333;51.306;17.056;2023-04-03T06:24:22;9.10;3.70;
69224;PMS1003;56333;51.306;17.056;2023-04-03T06:25:51;13.20;5.30;
69224;PMS1003;56333;51.306;17.056;2023-04-03T06:27:20;10.70;5.10;
69224;PMS1003;56333;51.306;17.056;2023-04-03T06:28:49;14.80;6.20;
69224;PMS1003;56333;51.306;17.056;2023-04-03T06:30:18;10.60;4.90;
69224;PMS1003;56333;51.306;17.056;2023-04-03T06:31:48;10.50;4.00;
69224;PMS1003;56333;51.306;17.056;2023-04-03T06:33:17;10.20;3.80;
69224;PMS1003;56333;51.306;17.056;2023-04-03T06:34:46;10.40;3.90;
69224;PMS1003;56333;51.306;17.056;2023-04-03T06:36:15;8.60;4.00;
69224;PMS1003;56333;51.306;17.056;2023-04-03T06:37:47;9.00;3.70;
69224;PMS1003;56333;51.306;17.056;2023-04-03T06:39:19;9.70;4.30;
69224;PMS1003;56333;51.306;17.056;2023-04-03T06:40:50;9.10;3.80;
69224;PMS1003;56333;51.306;17.056;2023-04-03T06:42:19;12.00;5.00;
69224;PMS1003;56333;51.306;17.056;2023-04-03T06:43:55;12.10;5.50;
69224;PMS1003;56333;51.306;17.056;2023-04-03T06:45:23;12.90;6.50;
69224;PMS1003;56333;51.306;17.056;2023-04-03T06:46:53;9.30;4.80;
69224;PMS1003;56333;51.306;17.056;2023-04-03T06:48:22;9.60;4.30;
69224;PMS1003;56333;51.306;17.056;2023-04-03T06:49:51;13.10;6.00;
69224;PMS1003;56333;51.306;17.056;2023-04-03T06:51:25;9.10;3.80;
69224;PMS1003;56333;51.306;17.056;2023-04-03T06:52:55;8.50;3.70;
69224;PMS1003;56333;51.306;17.056;2023-04-03T06:54:24;10.10;4.20;
69224;PMS1003;56333;51.306;17.056;2023-04-03T06:55:53;8.50;4.20;
69224;PMS1003;56333;51.306;17.056;2023-04-03T06:57:23;8.40;3.90;
69224;PMS1003;56333;51.306;17.056;2023-04-03T06:58:52;10.70;4.30;
69224;PMS1003;56333;51.306;17.056;2023-04-03T07:00:25;10.60;4.80;
69224;PMS1003;56333;51.306;17.056;2023-04-03T07:01:55;13.70;5.60;
69224;PMS1003;56333;51.306;17.056;2023-04-03T07:03:25;13.20;7.80;
69224;PMS1003;56333;51.306;17.056;2023-04-03T07:04:54;11.10;4.80;
69224;PMS1003;56333;51.306;17.056;2023-04-03T07:06:25;9.90;4.60;
69224;PMS1003;56333;51.306;17.056;2023-04-03T07:07:54;9.70;4.70;
69224;PMS1003;56333;51.306;17.056;2023-04-03T07:09:23;13.70;6.70;
69224;PMS1003;56333;51.306;17.056;2023-04-03T07:10:51;12.40;5.70;
69224;PMS1003;56333;51.306;17.056;2023-04-03T07:12:21;11.40;5.40;
69224;PMS1003;56333;51.306;17.056;2023-04-03T07:13:50;12.60;5.20;
69224;PMS1003;56333;51.306;17.056;2023-04-03T07:15:19;7.80;4.10;
69224;PMS1003;56333;51.306;17.056;2023-04-03T07:16:47;9.80;3.90;
69224;PMS1003;56333;51.306;17.056;2023-04-03T07:18:16;8.70;4.10;
69224;PMS1003;56333;51.306;17.056;2023-04-03T07:19:45;8.30;4.30;
69224;PMS1003;56333;51.306;17.056;2023-04-03T07:21:14;5.90;3.40;
69224;PMS1003;56333;51.306;17.056;2023-04-03T07:22:43;9.70;4.20;
69224;PMS1003;56333;51.306;17.056;2023-04-03T07:24:12;9.20;3.80;
69224;PMS1003;56333;51.306;17.056;2023-04-03T07:25:45;8.60;3.50;
69224;PMS1003;56333;51.306;17.056;2023-04-03T07:27:15;10.30;5.20;
69224;PMS1003;56333;51.306;17.056;2023-04-03T07:28:44;12.30;6.50;
69224;PMS1003;56333;51.306;17.056;2023-04-03T07:30:15;15.90;8.40;
69224;PMS1003;56333;51.306;17.056;2023-04-03T07:31:45;14.70;8.50;
69224;PMS1003;56333;51.306;17.056;2023-04-03T07:33:15;11.30;4.10;
69224;PMS1003;56333;51.306;17.056;2023-04-03T07:34:44;9.70;3.30;
69224;PMS1003;56333;51.306;17.056;2023-04-03T07:36:17;8.00;3.20;
69224;PMS1003;56333;51.306;17.056;2023-04-03T07:37:47;6.60;3.30;
69224;PMS1003;56333;51.306;17.056;2023-04-03T07:39:16;7.90;3.30;
69224;PMS1003;56333;51.306;17.056;2023-04-03T07:40:48;7.80;3.30;
69224;PMS1003;56333;51.306;17.056;2023-04-03T07:42:18;8.30;3.30;
69224;PMS1003;56333;51.306;17.056;2023-04-03T07:43:47;7.40;3.30;
69224;PMS1003;56333;51.306;17.056;2023-04-03T07:45:17;8.50;3.10;
69224;PMS1003;56333;51.306;17.056;2023-04-03T07:46:48;7.70;3.20;
69224;PMS1003;56333;51.306;17.056;2023-04-03T07:48:18;7.70;3.20;
69224;PMS1003;56333;51.306;17.056;2023-04-03T07:49:49;8.30;3.60;
69224;PMS1003;56333;51.306;17.056;2023-04-03T07:51:19;7.80;3.60;
69224;PMS1003;56333;51.306;17.056;2023-04-03T07:52:50;10.90;3.70;
69224;PMS1003;56333;51.306;17.056;2023-04-03T07:54:22;9.20;3.60;
69224;PMS1003;56333;51.306;17.056;2023-04-03T07:55:51;8.10;3.30;
69224;PMS1003;56333;51.306;17.056;2023-04-03T07:57:22;8.40;5.10;
69224;PMS1003;56333;51.306;17.056;2023-04-03T07:58:51;11.70;5.10;
69224;PMS1003;56333;51.306;17.056;2023-04-03T08:00:21;7.90;4.40;
69224;PMS1003;56333;51.306;17.056;2023-04-03T08:01:51;9.50;4.80;
69224;PMS1003;56333;51.306;17.056;2023-04-03T08:03:19;10.80;4.60;
69224;PMS1003;56333;51.306;17.056;2023-04-03T08:04:48;9.70;4.10;
69224;PMS1003;56333;51.306;17.056;2023-04-03T08:06:17;7.10;3.10;
69224;PMS1003;56333;51.306;17.056;2023-04-03T08:07:48;7.70;3.50;
69224;PMS1003;56333;51.306;17.056;2023-04-03T08:09:18;8.30;4.40;
69224;PMS1003;56333;51.306;17.056;2023-04-03T08:10:51;7.50;3.80;
69224;PMS1003;56333;51.306;17.056;2023-04-03T08:12:20;9.20;4.00;
69224;PMS1003;56333;51.306;17.056;2023-04-03T08:13:49;9.20;4.00;
69224;PMS1003;56333;51.306;17.056;2023-04-03T08:15:18;7.30;2.90;
69224;PMS1003;56333;51.306;17.056;2023-04-03T08:16:47;6.30;3.00;
69224;PMS1003;56333;51.306;17.056;2023-04-03T08:18:16;8.30;3.50;
69224;PMS1003;56333;51.306;17.056;2023-04-03T08:19:47;9.20;2.80;
69224;PMS1003;56333;51.306;17.056;2023-04-03T08:21:16;6.10;3.00;
69224;PMS1003;56333;51.306;17.056;2023-04-03T08:22:44;6.30;3.10;
69224;PMS1003;56333;51.306;17.056;2023-04-03T08:24:13;7.80;3.00;
69224;PMS1003;56333;51.306;17.056;2023-04-03T08:25:43;8.30;3.30;
69224;PMS1003;56333;51.306;17.056;2023-04-03T08:27:11;12.10;5.00;
69224;PMS1003;56333;51.306;17.056;2023-04-03T08:28:41;8.70;3.30;
69224;PMS1003;56333;51.306;17.056;2023-04-03T08:30:12;6.90;2.70;
69224;PMS1003;56333;51.306;17.056;2023-04-03T08:31:41;7.60;3.30;
69224;PMS1003;56333;51.306;17.056;2023-04-03T08:33:11;6.10;3.00;
69224;PMS1003;56333;51.306;17.056;2023-04-03T08:34:39;6.60;2.90;
69224;PMS1003;56333;51.306;17.056;2023-04-03T08:36:18;7.40;2.50;
69224;PMS1003;56333;51.306;17.056;2023-04-03T08:37:48;7.20;2.50;
69224;PMS1003;56333;51.306;17.056;2023-04-03T08:39:17;5.40;2.30;
69224;PMS1003;56333;51.306;17.056;2023-04-03T08:40:45;4.90;2.20;
69224;PMS1003;56333;51.306;17.056;2023-04-03T08:42:29;6.70;2.50;
69224;PMS1003;56333;51.306;17.056;2023-04-03T08:44:15;6.20;2.40;
69224;PMS1003;56333;51.306;17.056;2023-04-03T08:45:51;7.90;2.90;
69224;PMS1003;56333;51.306;17.056;2023-04-03T08:47:27;6.90;2.90;
69224;PMS1003;56333;51.306;17.056;2023-04-03T08:48:59;7.20;2.70;
69224;PMS1003;56333;51.306;17.056;2023-04-03T08:50:33;9.50;2.30;
69224;PMS1003;56333;51.306;17.056;2023-04-03T08:52:08;6.30;2.60;
69224;PMS1003;56333;51.306;17.056;2023-04-03T08:53:41;5.20;2.20;
69224;PMS1003;56333;51.306;17.056;2023-04-03T08:55:23;5.50;1.90;
69224;PMS1003;56333;51.306;17.056;2023-04-03T08:56:54;5.70;2.30;
69224;PMS1003;56333;51.306;17.056;2023-04-03T08:58:26;4.40;1.90;
69224;PMS1003;56333;51.306;17.056;2023-04-03T08:59:55;5.90;2.60;
69224;PMS1003;56333;51.306;17.056;2023-04-03T09:01:30;6.80;3.00;
69224;PMS1003;56333;51.306;17.056;2023-04-03T09:03:02;7.10;2.90;
69224;PMS1003;56333;51.306;17.056;2023-04-03T09:04:32;6.50;3.20;
69224;PMS1003;56333;51.306;17.056;2023-04-03T09:06:06;5.30;2.80;
69224;PMS1003;56333;51.306;17.056;2023-04-03T09:07:45;5.20;2.50;
69224;PMS1003;56333;51.306;17.056;2023-04-03T09:09:28;7.60;3.10;
69224;PMS1003;56333;51.306;17.056;2023-04-03T09:11:15;6.80;3.10;
69224;PMS1003;56333;51.306;17.056;2023-04-03T09:12:52;6.00;2.40;
69224;PMS1003;56333;51.306;17.056;2023-04-03T09:14:32;5.70;2.40;
69224;PMS1003;56333;51.306;17.056;2023-04-03T09:16:16;5.60;2.50;
69224;PMS1003;56333;51.306;17.056;2023-04-03T09:18:02;4.70;2.20;
69224;PMS1003;56333;51.306;17.056;2023-04-03T09:19:41;4.60;2.00;